Details From HUEN - Entebbe Intl
To HTMW - Mwanza
Flight Number -
Tags Generated
Created
Modified
Stats Distance 152 nm / 282 km
Max Altitude 0 ft / 0 m
Waypoints 2
Social Downloads 0
Likes 0
Share VATSIM

Download

Looking for another format? Having issues loading an existing format? Contact us
Advertisement - Login to hide

Notes

Generated

Route

HUEN HTMW

ID Type Via Altitude Latitude Longitude Leg Dist Tot Dist Heading (true) Name
O HUEN APT - 0 ft / 0 m 0.05123˚ 32.43912˚ - 0 nm - -
O HTMW APT - 0 ft / 0 m -2.43823˚ 32.92012˚ 152 nm 152 nm 169° / 169° -

Altitude Profile

Advertisement - Login to hide

HUEN

Details ICAO HUEN (EBB)
Name ENTEBBE INTL
Region Uganda
Timezone Africa/Kampala (UTC+3.0)
Stats Elevation 3,782 ft / 1,153 m (AMSL)
Location 0.042386° 32.443504°
Runways 2
Magnetic Variation 1.555° E

METAR

HUEN 211500Z 23008KT 9999 FEW021 FEW023CB BKN130 23/19 Q1016 CB/S

Decode

TAF

TAF TAF HUEN 211100Z 2112/2218 19010KT 9000 -TSRA SCT020 FEW022CB BKN120 FM211600 25008KT 9999 FEW019 FEW021CB BKN110 BECMG 2120/2123 33010KT 9000 -TS SCT018 FEW020CB BKN100 TEMPO 2201/2206 VRB15KT 7000 TSRA BKN017 FEW019CB OVC090 BECMG 2207/2212 16010KT 9000 RA SCT020 FEW022CB BKN130 FM221600 22006KT 9999 FEW019 FEW021CB SCT130

Decode

Departure Runways

ID Width Length Bearing (true) Bearing (mag) Surface Threshold Offset Overrun Length
12 150 ft / 46 m 8,014 ft / 2,443 m 121.34° 119.78° Asphalt 0 ft / 0 m 0 ft / 0 m
17 150 ft / 46 m 12,073 ft / 3,680 m 171.06° 169.50° Asphalt 0 ft / 0 m 0 ft / 0 m
30 150 ft / 46 m 8,014 ft / 2,443 m 301.34° 299.78° Asphalt 0 ft / 0 m 0 ft / 0 m
35 150 ft / 46 m 12,073 ft / 3,680 m 351.06° 349.50° Asphalt 0 ft / 0 m 0 ft / 0 m

HTMW

Details ICAO HTMW (MWZ)
Name MWANZA
Region Tanzania
Timezone Africa/Dar_es_Salaam (UTC+3.0)
Stats Elevation 3,763 ft / 1,147 m (AMSL)
Location -2.444485° 32.932665°
Runways 1
Magnetic Variation 0.890° E

METAR

HTMW 211500Z 30005KT 9999 FEW026 FEW027CB 27/20 Q1014 NOSIG

Decode

TAF

HTMW 211100Z 2112/2212 32010KT 9999 SCT028 FEW029CB BECMG 2202/2205 15010KT

Decode

Destination Runways

ID Width Length Bearing (true) Bearing (mag) Surface Threshold Offset Overrun Length
12 148 ft / 45 m 10,223 ft / 3,116 m 116.54° 115.65° Asphalt 300 ft / 91 m 615 ft / 187 m
30 148 ft / 45 m 10,223 ft / 3,116 m 296.54° 295.65° Asphalt 0 ft / 0 m 0 ft / 0 m

Popular Alternatives